sensor_id;sensor_type;location;lat;lon;timestamp;pressure;altitude;pressure_sealevel;temperature
80581;BMP180;1474;51.460;7.150;2024-01-15T06:01:13;99096.00;;;14.20
80581;BMP180;1474;51.460;7.150;2024-01-15T06:03:39;99105.00;;;14.20
80581;BMP180;1474;51.460;7.150;2024-01-15T06:06:05;99092.00;;;14.20
80581;BMP180;1474;51.460;7.150;2024-01-15T06:08:31;99086.00;;;14.20
80581;BMP180;1474;51.460;7.150;2024-01-15T06:10:56;99084.00;;;14.20
80581;BMP180;1474;51.460;7.150;2024-01-15T06:13:22;99091.00;;;14.20
80581;BMP180;1474;51.460;7.150;2024-01-15T06:15:48;99082.00;;;14.20
80581;BMP180;1474;51.460;7.150;2024-01-15T06:18:14;99085.00;;;14.20
80581;BMP180;1474;51.460;7.150;2024-01-15T06:20:39;99081.00;;;14.20
80581;BMP180;1474;51.460;7.150;2024-01-15T06:23:05;99074.00;;;14.20
80581;BMP180;1474;51.460;7.150;2024-01-15T06:25:31;99079.00;;;14.20
80581;BMP180;1474;51.460;7.150;2024-01-15T06:27:56;99085.00;;;14.20
80581;BMP180;1474;51.460;7.150;2024-01-15T06:30:22;99071.00;;;14.20
80581;BMP180;1474;51.460;7.150;2024-01-15T06:32:48;99075.00;;;14.20
80581;BMP180;1474;51.460;7.150;2024-01-15T06:35:14;99077.00;;;14.20
80581;BMP180;1474;51.460;7.150;2024-01-15T06:37:40;99071.00;;;14.20
80581;BMP180;1474;51.460;7.150;2024-01-15T06:40:06;99077.00;;;14.20
80581;BMP180;1474;51.460;7.150;2024-01-15T06:42:32;99078.00;;;14.20
80581;BMP180;1474;51.460;7.150;2024-01-15T06:44:58;99071.00;;;14.20
80581;BMP180;1474;51.460;7.150;2024-01-15T06:47:24;99067.00;;;14.20
80581;BMP180;1474;51.460;7.150;2024-01-15T06:49:50;99070.00;;;14.20
80581;BMP180;1474;51.460;7.150;2024-01-15T06:52:17;99067.00;;;14.20
80581;BMP180;1474;51.460;7.150;2024-01-15T06:54:43;99068.00;;;14.20
80581;BMP180;1474;51.460;7.150;2024-01-15T06:57:08;99071.00;;;14.20
80581;BMP180;1474;51.460;7.150;2024-01-15T06:59:34;99070.00;;;14.20
80581;BMP180;1474;51.460;7.150;2024-01-15T07:02:03;99074.00;;;14.20
80581;BMP180;1474;51.460;7.150;2024-01-15T07:04:29;99079.00;;;14.20
80581;BMP180;1474;51.460;7.150;2024-01-15T07:06:54;99076.00;;;14.20
80581;BMP180;1474;51.460;7.150;2024-01-15T07:09:20;99078.00;;;14.20
80581;BMP180;1474;51.460;7.150;2024-01-15T07:11:46;99084.00;;;14.20
80581;BMP180;1474;51.460;7.150;2024-01-15T07:14:12;99077.00;;;14.20
80581;BMP180;1474;51.460;7.150;2024-01-15T07:16:38;99083.00;;;14.20
80581;BMP180;1474;51.460;7.150;2024-01-15T07:19:04;99087.00;;;14.20
80581;BMP180;1474;51.460;7.150;2024-01-15T07:21:30;99080.00;;;14.20
80581;BMP180;1474;51.460;7.150;2024-01-15T07:23:56;99072.00;;;14.20
80581;BMP180;1474;51.460;7.150;2024-01-15T07:26:22;99074.00;;;14.20
80581;BMP180;1474;51.460;7.150;2024-01-15T07:28:50;99085.00;;;14.20
80581;BMP180;1474;51.460;7.150;2024-01-15T07:31:17;99082.00;;;14.20
80581;BMP180;1474;51.460;7.150;2024-01-15T07:33:43;99082.00;;;14.20
80581;BMP180;1474;51.460;7.150;2024-01-15T07:36:12;99076.00;;;14.20
80581;BMP180;1474;51.460;7.150;2024-01-15T07:38:37;99074.00;;;14.20
80581;BMP180;1474;51.460;7.150;2024-01-15T07:41:03;99079.00;;;14.20
80581;BMP180;1474;51.460;7.150;2024-01-15T07:43:30;99078.00;;;14.20
80581;BMP180;1474;51.460;7.150;2024-01-15T07:45:55;99076.00;;;14.20
80581;BMP180;1474;51.460;7.150;2024-01-15T07:48:21;99075.00;;;14.20
80581;BMP180;1474;51.460;7.150;2024-01-15T07:50:47;99081.00;;;14.20
80581;BMP180;1474;51.460;7.150;2024-01-15T07:53:13;99082.00;;;14.20
80581;BMP180;1474;51.460;7.150;2024-01-15T07:55:41;99074.00;;;14.20
80581;BMP180;1474;51.460;7.150;2024-01-15T07:58:07;99081.00;;;14.20
80581;BMP180;1474;51.460;7.150;2024-01-15T08:00:33;99070.00;;;14.20
80581;BMP180;1474;51.460;7.150;2024-01-15T08:02:58;99072.00;;;14.20
80581;BMP180;1474;51.460;7.150;2024-01-15T08:05:24;99071.00;;;14.20
80581;BMP180;1474;51.460;7.150;2024-01-15T08:07:50;99078.00;;;14.20
80581;BMP180;1474;51.460;7.150;2024-01-15T08:10:16;99075.00;;;14.20
80581;BMP180;1474;51.460;7.150;2024-01-15T08:12:42;99072.00;;;14.20
80581;BMP180;1474;51.460;7.150;2024-01-15T08:15:07;99067.00;;;14.20
80581;BMP180;1474;51.460;7.150;2024-01-15T08:17:33;99064.00;;;14.20
80581;BMP180;1474;51.460;7.150;2024-01-15T08:20:19;99061.00;;;14.20
80581;BMP180;1474;51.460;7.150;2024-01-15T08:22:45;99067.00;;;14.20
80581;BMP180;1474;51.460;7.150;2024-01-15T08:25:12;99060.00;;;14.20
80581;BMP180;1474;51.460;7.150;2024-01-15T08:27:38;99067.00;;;14.20
80581;BMP180;1474;51.460;7.150;2024-01-15T08:30:04;99072.00;;;14.20
80581;BMP180;1474;51.460;7.150;2024-01-15T08:32:30;99069.00;;;14.20
80581;BMP180;1474;51.460;7.150;2024-01-15T08:34:56;99073.00;;;14.20
80581;BMP180;1474;51.460;7.150;2024-01-15T08:37:22;99066.00;;;14.20
80581;BMP180;1474;51.460;7.150;2024-01-15T08:39:47;99066.00;;;14.20
80581;BMP180;1474;51.460;7.150;2024-01-15T08:42:13;99063.00;;;14.20
80581;BMP180;1474;51.460;7.150;2024-01-15T08:44:39;99072.00;;;14.20
80581;BMP180;1474;51.460;7.150;2024-01-15T08:47:06;99062.00;;;14.20
80581;BMP180;1474;51.460;7.150;2024-01-15T08:49:32;99062.00;;;14.20
80581;BMP180;1474;51.460;7.150;2024-01-15T08:51:57;99073.00;;;14.20
80581;BMP180;1474;51.460;7.150;2024-01-15T08:54:24;99070.00;;;14.20
80581;BMP180;1474;51.460;7.150;2024-01-15T08:56:49;99076.00;;;14.20
80581;BMP180;1474;51.460;7.150;2024-01-15T08:59:15;99077.00;;;14.20
80581;BMP180;1474;51.460;7.150;2024-01-15T09:01:41;99078.00;;;14.20
80581;BMP180;1474;51.460;7.150;2024-01-15T09:04:07;99080.00;;;14.20
80581;BMP180;1474;51.460;7.150;2024-01-15T09:06:33;99082.00;;;14.20
80581;BMP180;1474;51.460;7.150;2024-01-15T09:08:59;99081.00;;;14.20
80581;BMP180;1474;51.460;7.150;2024-01-15T09:11:25;99082.00;;;14.20
80581;BMP180;1474;51.460;7.150;2024-01-15T09:13:51;99085.00;;;14.20
80581;BMP180;1474;51.460;7.150;2024-01-15T09:16:17;99095.00;;;14.20
80581;BMP180;1474;51.460;7.150;2024-01-15T09:18:43;99093.00;;;14.20
80581;BMP180;1474;51.460;7.150;2024-01-15T09:21:09;99087.00;;;14.20
80581;BMP180;1474;51.460;7.150;2024-01-15T09:23:34;99091.00;;;14.20
80581;BMP180;1474;51.460;7.150;2024-01-15T09:26:01;99101.00;;;14.20
80581;BMP180;1474;51.460;7.150;2024-01-15T09:28:26;99092.00;;;14.20
80581;BMP180;1474;51.460;7.150;2024-01-15T09:30:52;99100.00;;;14.20
80581;BMP180;1474;51.460;7.150;2024-01-15T09:33:18;99088.00;;;14.20
80581;BMP180;1474;51.460;7.150;2024-01-15T09:35:43;99099.00;;;14.20
80581;BMP180;1474;51.460;7.150;2024-01-15T09:38:09;99104.00;;;14.20
80581;BMP180;1474;51.460;7.150;2024-01-15T09:40:38;99099.00;;;14.20
80581;BMP180;1474;51.460;7.150;2024-01-15T09:43:08;99113.00;;;14.20
80581;BMP180;1474;51.460;7.150;2024-01-15T09:45:34;99100.00;;;14.20
80581;BMP180;1474;51.460;7.150;2024-01-15T09:48:00;99111.00;;;14.20
80581;BMP180;1474;51.460;7.150;2024-01-15T09:50:26;99102.00;;;14.10
80581;BMP180;1474;51.460;7.150;2024-01-15T09:52:54;99108.00;;;14.10
80581;BMP180;1474;51.460;7.150;2024-01-15T09:55:20;99113.00;;;14.10
80581;BMP180;1474;51.460;7.150;2024-01-15T09:57:46;99105.00;;;14.20
80581;BMP180;1474;51.460;7.150;2024-01-15T10:00:12;99109.00;;;14.20
80581;BMP180;1474;51.460;7.150;2024-01-15T10:02:38;99108.00;;;14.20
80581;BMP180;1474;51.460;7.150;2024-01-15T10:05:05;99108.00;;;14.20
80581;BMP180;1474;51.460;7.150;2024-01-15T10:07:36;99108.00;;;14.20
80581;BMP180;1474;51.460;7.150;2024-01-15T10:10:03;99110.00;;;14.20
80581;BMP180;1474;51.460;7.150;2024-01-15T10:12:29;99102.00;;;14.20
80581;BMP180;1474;51.460;7.150;2024-01-15T10:14:56;99105.00;;;14.20
80581;BMP180;1474;51.460;7.150;2024-01-15T10:17:24;99097.00;;;14.30
80581;BMP180;1474;51.460;7.150;2024-01-15T10:19:49;99095.00;;;14.30
80581;BMP180;1474;51.460;7.150;2024-01-15T10:22:15;99089.00;;;14.30
80581;BMP180;1474;51.460;7.150;2024-01-15T10:24:41;99091.00;;;14.30
80581;BMP180;1474;51.460;7.150;2024-01-15T10:27:08;99097.00;;;14.20
80581;BMP180;1474;51.460;7.150;2024-01-15T10:29:35;99084.00;;;14.20
80581;BMP180;1474;51.460;7.150;2024-01-15T10:32:03;99097.00;;;14.20
80581;BMP180;1474;51.460;7.150;2024-01-15T10:34:30;99100.00;;;14.20
80581;BMP180;1474;51.460;7.150;2024-01-15T10:36:56;99089.00;;;14.30
80581;BMP180;1474;51.460;7.150;2024-01-15T10:39:23;99083.00;;;14.30
80581;BMP180;1474;51.460;7.150;2024-01-15T10:41:50;99080.00;;;14.30
80581;BMP180;1474;51.460;7.150;2024-01-15T10:44:17;99087.00;;;14.30
80581;BMP180;1474;51.460;7.150;2024-01-15T10:46:45;99078.00;;;14.30
80581;BMP180;1474;51.460;7.150;2024-01-15T10:49:11;99092.00;;;14.30
80581;BMP180;1474;51.460;7.150;2024-01-15T10:51:38;99099.00;;;14.30
80581;BMP180;1474;51.460;7.150;2024-01-15T10:54:05;99100.00;;;14.30
80581;BMP180;1474;51.460;7.150;2024-01-15T10:56:35;99097.00;;;14.30
80581;BMP180;1474;51.460;7.150;2024-01-15T10:59:02;99092.00;;;14.20
80581;BMP180;1474;51.460;7.150;2024-01-15T11:01:29;99086.00;;;14.20
80581;BMP180;1474;51.460;7.150;2024-01-15T11:03:56;99087.00;;;14.20
80581;BMP180;1474;51.460;7.150;2024-01-15T11:06:24;99091.00;;;14.20
80581;BMP180;1474;51.460;7.150;2024-01-15T11:08:52;99096.00;;;14.30
80581;BMP180;1474;51.460;7.150;2024-01-15T11:11:21;99091.00;;;14.20
80581;BMP180;1474;51.460;7.150;2024-01-15T11:13:47;99101.00;;;14.20
80581;BMP180;1474;51.460;7.150;2024-01-15T11:16:16;99089.00;;;14.20
80581;BMP180;1474;51.460;7.150;2024-01-15T11:19:01;99090.00;;;14.20
80581;BMP180;1474;51.460;7.150;2024-01-15T11:21:28;99094.00;;;14.20
80581;BMP180;1474;51.460;7.150;2024-01-15T11:23:57;99095.00;;;14.20
80581;BMP180;1474;51.460;7.150;2024-01-15T11:29:06;99090.00;;;14.20
80581;BMP180;1474;51.460;7.150;2024-01-15T11:34:10;99105.00;;;14.20
80581;BMP180;1474;51.460;7.150;2024-01-15T11:42:03;99102.00;;;14.20
80581;BMP180;1474;51.460;7.150;2024-01-15T11:44:30;99086.00;;;14.20
80581;BMP180;1474;51.460;7.150;2024-01-15T11:47:01;99085.00;;;14.20
80581;BMP180;1474;51.460;7.150;2024-01-15T11:50:03;99087.00;;;14.20
80581;BMP180;1474;51.460;7.150;2024-01-15T11:52:38;99091.00;;;14.20
80581;BMP180;1474;51.460;7.150;2024-01-15T11:55:19;99091.00;;;14.10
80581;BMP180;1474;51.460;7.150;2024-01-15T11:57:53;99091.00;;;14.10
80581;BMP180;1474;51.460;7.150;2024-01-15T12:00:21;99088.00;;;14.10
80581;BMP180;1474;51.460;7.150;2024-01-15T12:02:49;99083.00;;;14.10
80581;BMP180;1474;51.460;7.150;2024-01-15T12:05:17;99087.00;;;14.10
80581;BMP180;1474;51.460;7.150;2024-01-15T12:07:47;99078.00;;;14.10
80581;BMP180;1474;51.460;7.150;2024-01-15T12:10:20;99083.00;;;14.10
80581;BMP180;1474;51.460;7.150;2024-01-15T12:15:21;99088.00;;;14.00
80581;BMP180;1474;51.460;7.150;2024-01-15T12:17:47;99083.00;;;14.00
80581;BMP180;1474;51.460;7.150;2024-01-15T12:20:13;99082.00;;;14.00
80581;BMP180;1474;51.460;7.150;2024-01-15T12:22:41;99089.00;;;14.00
80581;BMP180;1474;51.460;7.150;2024-01-15T12:25:07;99091.00;;;14.00
80581;BMP180;1474;51.460;7.150;2024-01-15T12:27:33;99086.00;;;14.00
80581;BMP180;1474;51.460;7.150;2024-01-15T12:29:59;99085.00;;;14.00
80581;BMP180;1474;51.460;7.150;2024-01-15T12:32:25;99084.00;;;14.00
80581;BMP180;1474;51.460;7.150;2024-01-15T12:34:51;99090.00;;;14.10
80581;BMP180;1474;51.460;7.150;2024-01-15T12:37:20;99087.00;;;14.10
80581;BMP180;1474;51.460;7.150;2024-01-15T12:39:47;99092.00;;;14.10
80581;BMP180;1474;51.460;7.150;2024-01-15T12:42:17;99091.00;;;14.10
80581;BMP180;1474;51.460;7.150;2024-01-15T12:44:44;99094.00;;;14.00
80581;BMP180;1474;51.460;7.150;2024-01-15T12:47:10;99089.00;;;14.00
80581;BMP180;1474;51.460;7.150;2024-01-15T12:49:38;99104.00;;;14.00
80581;BMP180;1474;51.460;7.150;2024-01-15T12:52:09;99095.00;;;14.00
80581;BMP180;1474;51.460;7.150;2024-01-15T12:54:35;99104.00;;;14.00
80581;BMP180;1474;51.460;7.150;2024-01-15T12:57:01;99098.00;;;14.00
80581;BMP180;1474;51.460;7.150;2024-01-15T12:59:26;99111.00;;;14.00
80581;BMP180;1474;51.460;7.150;2024-01-15T13:01:52;99098.00;;;14.00
80581;BMP180;1474;51.460;7.150;2024-01-15T13:04:25;99111.00;;;14.00
80581;BMP180;1474;51.460;7.150;2024-01-15T13:06:51;99110.00;;;13.90
80581;BMP180;1474;51.460;7.150;2024-01-15T13:09:17;99110.00;;;14.00
80581;BMP180;1474;51.460;7.150;2024-01-15T13:11:46;99118.00;;;13.90
80581;BMP180;1474;51.460;7.150;2024-01-15T13:14:13;99123.00;;;14.00
80581;BMP180;1474;51.460;7.150;2024-01-15T13:16:40;99121.00;;;14.00
80581;BMP180;1474;51.460;7.150;2024-01-15T13:19:08;99114.00;;;14.00
80581;BMP180;1474;51.460;7.150;2024-01-15T13:21:34;99107.00;;;14.00
80581;BMP180;1474;51.460;7.150;2024-01-15T13:24:00;99114.00;;;14.00
80581;BMP180;1474;51.460;7.150;2024-01-15T13:26:26;99105.00;;;14.00
80581;BMP180;1474;51.460;7.150;2024-01-15T13:28:52;99102.00;;;14.00
80581;BMP180;1474;51.460;7.150;2024-01-15T13:31:19;99106.00;;;14.00
80581;BMP180;1474;51.460;7.150;2024-01-15T13:33:44;99111.00;;;14.00
80581;BMP180;1474;51.460;7.150;2024-01-15T13:36:10;99117.00;;;14.10
80581;BMP180;1474;51.460;7.150;2024-01-15T13:38:37;99125.00;;;14.10
80581;BMP180;1474;51.460;7.150;2024-01-15T13:41:05;99132.00;;;14.10
80581;BMP180;1474;51.460;7.150;2024-01-15T13:43:33;99126.00;;;14.10
80581;BMP180;1474;51.460;7.150;2024-01-15T13:46:00;99133.00;;;14.10
80581;BMP180;1474;51.460;7.150;2024-01-15T13:48:26;99125.00;;;14.10
80581;BMP180;1474;51.460;7.150;2024-01-15T13:50:53;99121.00;;;14.10
80581;BMP180;1474;51.460;7.150;2024-01-15T13:53:18;99135.00;;;14.00
80581;BMP180;1474;51.460;7.150;2024-01-15T13:55:44;99126.00;;;14.00
80581;BMP180;1474;51.460;7.150;2024-01-15T13:58:10;99133.00;;;14.00
80581;BMP180;1474;51.460;7.150;2024-01-15T14:00:36;99134.00;;;14.00
80581;BMP180;1474;51.460;7.150;2024-01-15T14:03:02;99135.00;;;14.00
80581;BMP180;1474;51.460;7.150;2024-01-15T14:05:29;99139.00;;;14.00
80581;BMP180;1474;51.460;7.150;2024-01-15T14:07:54;99148.00;;;14.00
80581;BMP180;1474;51.460;7.150;2024-01-15T14:10:21;99143.00;;;14.00
80581;BMP180;1474;51.460;7.150;2024-01-15T14:12:46;99143.00;;;14.00
80581;BMP180;1474;51.460;7.150;2024-01-15T14:15:12;99143.00;;;14.00
80581;BMP180;1474;51.460;7.150;2024-01-15T14:17:38;99156.00;;;14.00
80581;BMP180;1474;51.460;7.150;2024-01-15T14:20:05;99154.00;;;13.90
80581;BMP180;1474;51.460;7.150;2024-01-15T14:22:31;99166.00;;;13.90
80581;BMP180;1474;51.460;7.150;2024-01-15T14:24:57;99163.00;;;13.90
80581;BMP180;1474;51.460;7.150;2024-01-15T14:27:23;99166.00;;;13.90
80581;BMP180;1474;51.460;7.150;2024-01-15T14:29:49;99172.00;;;13.90
80581;BMP180;1474;51.460;7.150;2024-01-15T14:32:15;99184.00;;;13.90
80581;BMP180;1474;51.460;7.150;2024-01-15T14:34:40;99191.00;;;13.90
80581;BMP180;1474;51.460;7.150;2024-01-15T14:37:06;99181.00;;;13.90
80581;BMP180;1474;51.460;7.150;2024-01-15T14:39:32;99191.00;;;13.90
80581;BMP180;1474;51.460;7.150;2024-01-15T14:42:00;99202.00;;;13.90
80581;BMP180;1474;51.460;7.150;2024-01-15T14:44:26;99207.00;;;13.90
80581;BMP180;1474;51.460;7.150;2024-01-15T14:46:54;99228.00;;;13.90
80581;BMP180;1474;51.460;7.150;2024-01-15T14:49:21;99225.00;;;13.90
80581;BMP180;1474;51.460;7.150;2024-01-15T14:51:47;99223.00;;;13.90
80581;BMP180;1474;51.460;7.150;2024-01-15T14:54:14;99221.00;;;13.90
80581;BMP180;1474;51.460;7.150;2024-01-15T14:56:40;99226.00;;;13.90
80581;BMP180;1474;51.460;7.150;2024-01-15T14:59:06;99224.00;;;13.90
80581;BMP180;1474;51.460;7.150;2024-01-15T15:01:32;99218.00;;;13.90
80581;BMP180;1474;51.460;7.150;2024-01-15T15:03:58;99228.00;;;13.90
80581;BMP180;1474;51.460;7.150;2024-01-15T15:06:23;99236.00;;;13.90
80581;BMP180;1474;51.460;7.150;2024-01-15T15:08:53;99242.00;;;13.90
80581;BMP180;1474;51.460;7.150;2024-01-15T15:11:25;99245.00;;;13.90
80581;BMP180;1474;51.460;7.150;2024-01-15T15:13:52;99262.00;;;13.90
80581;BMP180;1474;51.460;7.150;2024-01-15T15:16:17;99254.00;;;13.90
80581;BMP180;1474;51.460;7.150;2024-01-15T15:18:43;99258.00;;;13.90
80581;BMP180;1474;51.460;7.150;2024-01-15T15:21:10;99272.00;;;13.90
80581;BMP180;1474;51.460;7.150;2024-01-15T15:23:36;99274.00;;;13.90
80581;BMP180;1474;51.460;7.150;2024-01-15T15:26:04;99268.00;;;13.90
80581;BMP180;1474;51.460;7.150;2024-01-15T15:28:30;99281.00;;;13.90
80581;BMP180;1474;51.460;7.150;2024-01-15T15:30:56;99291.00;;;13.90
80581;BMP180;1474;51.460;7.150;2024-01-15T15:33:25;99285.00;;;13.90
80581;BMP180;1474;51.460;7.150;2024-01-15T15:35:50;99277.00;;;13.90
80581;BMP180;1474;51.460;7.150;2024-01-15T15:38:17;99290.00;;;14.00
80581;BMP180;1474;51.460;7.150;2024-01-15T15:40:43;99287.00;;;14.00
80581;BMP180;1474;51.460;7.150;2024-01-15T15:43:09;99300.00;;;14.00
80581;BMP180;1474;51.460;7.150;2024-01-15T15:45:34;99307.00;;;14.10
80581;BMP180;1474;51.460;7.150;2024-01-15T15:48:00;99316.00;;;14.10
80581;BMP180;1474;51.460;7.150;2024-01-15T15:50:26;99309.00;;;14.10
80581;BMP180;1474;51.460;7.150;2024-01-15T15:52:51;99321.00;;;14.10
80581;BMP180;1474;51.460;7.150;2024-01-15T15:55:18;99318.00;;;14.10
80581;BMP180;1474;51.460;7.150;2024-01-15T15:57:43;99325.00;;;14.00
80581;BMP180;1474;51.460;7.150;2024-01-15T16:00:10;99324.00;;;14.10
80581;BMP180;1474;51.460;7.150;2024-01-15T16:02:37;99325.00;;;14.10
80581;BMP180;1474;51.460;7.150;2024-01-15T16:05:03;99329.00;;;14.00
80581;BMP180;1474;51.460;7.150;2024-01-15T16:07:35;99332.00;;;14.10
80581;BMP180;1474;51.460;7.150;2024-01-15T16:10:01;99336.00;;;14.00
80581;BMP180;1474;51.460;7.150;2024-01-15T16:12:27;99329.00;;;14.00
80581;BMP180;1474;51.460;7.150;2024-01-15T16:14:55;99336.00;;;14.00
80581;BMP180;1474;51.460;7.150;2024-01-15T16:17:21;99339.00;;;14.00
80581;BMP180;1474;51.460;7.150;2024-01-15T16:19:47;99351.00;;;14.00
80581;BMP180;1474;51.460;7.150;2024-01-15T16:22:13;99351.00;;;14.00
80581;BMP180;1474;51.460;7.150;2024-01-15T16:24:38;99366.00;;;14.00
80581;BMP180;1474;51.460;7.150;2024-01-15T16:27:05;99364.00;;;14.00
80581;BMP180;1474;51.460;7.150;2024-01-15T16:29:30;99361.00;;;14.00
80581;BMP180;1474;51.460;7.150;2024-01-15T16:31:56;99361.00;;;13.90
80581;BMP180;1474;51.460;7.150;2024-01-15T16:34:22;99358.00;;;13.90
80581;BMP180;1474;51.460;7.150;2024-01-15T16:36:47;99371.00;;;13.90
80581;BMP180;1474;51.460;7.150;2024-01-15T16:39:13;99367.00;;;13.90
80581;BMP180;1474;51.460;7.150;2024-01-15T16:41:39;99378.00;;;13.90
80581;BMP180;1474;51.460;7.150;2024-01-15T16:44:05;99366.00;;;13.90
80581;BMP180;1474;51.460;7.150;2024-01-15T16:46:30;99374.00;;;13.90
80581;BMP180;1474;51.460;7.150;2024-01-15T16:48:56;99368.00;;;13.90
80581;BMP180;1474;51.460;7.150;2024-01-15T16:51:22;99382.00;;;13.90
80581;BMP180;1474;51.460;7.150;2024-01-15T16:53:48;99380.00;;;13.90
80581;BMP180;1474;51.460;7.150;2024-01-15T16:56:13;99392.00;;;13.90
80581;BMP180;1474;51.460;7.150;2024-01-15T16:58:39;99384.00;;;13.90
80581;BMP180;1474;51.460;7.150;2024-01-15T17:01:05;99382.00;;;13.90
80581;BMP180;1474;51.460;7.150;2024-01-15T17:03:33;99387.00;;;13.90
80581;BMP180;1474;51.460;7.150;2024-01-15T17:05:59;99391.00;;;13.90
80581;BMP180;1474;51.460;7.150;2024-01-15T17:08:24;99387.00;;;13.80
80581;BMP180;1474;51.460;7.150;2024-01-15T17:10:50;99402.00;;;13.90
80581;BMP180;1474;51.460;7.150;2024-01-15T17:13:16;99398.00;;;13.90
80581;BMP180;1474;51.460;7.150;2024-01-15T17:15:42;99411.00;;;13.80
80581;BMP180;1474;51.460;7.150;2024-01-15T17:18:08;99412.00;;;13.80
80581;BMP180;1474;51.460;7.150;2024-01-15T17:20:33;99415.00;;;13.80
80581;BMP180;1474;51.460;7.150;2024-01-15T17:22:59;99419.00;;;13.80
80581;BMP180;1474;51.460;7.150;2024-01-15T17:25:28;99410.00;;;13.80
80581;BMP180;1474;51.460;7.150;2024-01-15T17:27:53;99409.00;;;13.90
80581;BMP180;1474;51.460;7.150;2024-01-15T17:30:19;99400.00;;;14.00
80581;BMP180;1474;51.460;7.150;2024-01-15T17:32:45;99410.00;;;14.00
80581;BMP180;1474;51.460;7.150;2024-01-15T17:35:11;99415.00;;;14.00
80581;BMP180;1474;51.460;7.150;2024-01-15T17:37:36;99419.00;;;13.90
80581;BMP180;1474;51.460;7.150;2024-01-15T17:40:03;99414.00;;;13.90
80581;BMP180;1474;51.460;7.150;2024-01-15T17:42:29;99419.00;;;14.00
80581;BMP180;1474;51.460;7.150;2024-01-15T17:44:55;99423.00;;;14.00
80581;BMP180;1474;51.460;7.150;2024-01-15T17:47:21;99429.00;;;14.00
80581;BMP180;1474;51.460;7.150;2024-01-15T17:49:47;99432.00;;;14.00
80581;BMP180;1474;51.460;7.150;2024-01-15T17:52:13;99439.00;;;14.00
80581;BMP180;1474;51.460;7.150;2024-01-15T17:54:39;99443.00;;;14.00
80581;BMP180;1474;51.460;7.150;2024-01-15T17:57:04;99446.00;;;14.00
80581;BMP180;1474;51.460;7.150;2024-01-15T17:59:30;99439.00;;;14.00
80581;BMP180;1474;51.460;7.150;2024-01-15T18:01:56;99446.00;;;14.00
80581;BMP180;1474;51.460;7.150;2024-01-15T18:04:22;99443.00;;;14.00
80581;BMP180;1474;51.460;7.150;2024-01-15T18:06:48;99448.00;;;14.00
80581;BMP180;1474;51.460;7.150;2024-01-15T18:09:14;99441.00;;;14.00
80581;BMP180;1474;51.460;7.150;2024-01-15T18:11:43;99449.00;;;14.00
80581;BMP180;1474;51.460;7.150;2024-01-15T18:14:10;99449.00;;;14.00
80581;BMP180;1474;51.460;7.150;2024-01-15T18:16:36;99449.00;;;14.00
80581;BMP180;1474;51.460;7.150;2024-01-15T18:19:03;99455.00;;;14.00
80581;BMP180;1474;51.460;7.150;2024-01-15T18:21:29;99454.00;;;14.00
80581;BMP180;1474;51.460;7.150;2024-01-15T18:23:54;99458.00;;;14.00
80581;BMP180;1474;51.460;7.150;2024-01-15T18:26:20;99466.00;;;14.00
80581;BMP180;1474;51.460;7.150;2024-01-15T18:28:46;99471.00;;;14.00
80581;BMP180;1474;51.460;7.150;2024-01-15T18:31:12;99469.00;;;14.00
80581;BMP180;1474;51.460;7.150;2024-01-15T18:33:38;99482.00;;;14.00
80581;BMP180;1474;51.460;7.150;2024-01-15T18:36:05;99478.00;;;14.00
80581;BMP180;1474;51.460;7.150;2024-01-15T18:38:35;99488.00;;;14.00
80581;BMP180;1474;51.460;7.150;2024-01-15T18:41:01;99495.00;;;14.00
80581;BMP180;1474;51.460;7.150;2024-01-15T18:43:30;99493.00;;;14.00
80581;BMP180;1474;51.460;7.150;2024-01-15T18:46:05;99492.00;;;14.00
80581;BMP180;1474;51.460;7.150;2024-01-15T18:48:32;99493.00;;;14.00
80581;BMP180;1474;51.460;7.150;2024-01-15T18:50:58;99484.00;;;14.00
80581;BMP180;1474;51.460;7.150;2024-01-15T18:53:25;99497.00;;;14.00
80581;BMP180;1474;51.460;7.150;2024-01-15T18:55:51;99499.00;;;14.00
80581;BMP180;1474;51.460;7.150;2024-01-15T18:58:18;99504.00;;;14.00
80581;BMP180;1474;51.460;7.150;2024-01-15T19:00:44;99494.00;;;14.00
80581;BMP180;1474;51.460;7.150;2024-01-15T19:03:10;99503.00;;;14.00
80581;BMP180;1474;51.460;7.150;2024-01-15T19:05:41;99499.00;;;14.00
80581;BMP180;1474;51.460;7.150;2024-01-15T19:08:07;99509.00;;;14.00
80581;BMP180;1474;51.460;7.150;2024-01-15T19:10:32;99511.00;;;14.00
80581;BMP180;1474;51.460;7.150;2024-01-15T19:12:58;99521.00;;;14.00
80581;BMP180;1474;51.460;7.150;2024-01-15T19:15:25;99519.00;;;14.00
80581;BMP180;1474;51.460;7.150;2024-01-15T19:17:50;99532.00;;;14.00
80581;BMP180;1474;51.460;7.150;2024-01-15T19:20:16;99531.00;;;14.00
80581;BMP180;1474;51.460;7.150;2024-01-15T19:22:42;99526.00;;;14.00
80581;BMP180;1474;51.460;7.150;2024-01-15T19:25:08;99529.00;;;14.00
80581;BMP180;1474;51.460;7.150;2024-01-15T19:27:36;99535.00;;;14.00
80581;BMP180;1474;51.460;7.150;2024-01-15T19:30:11;99538.00;;;14.00
80581;BMP180;1474;51.460;7.150;2024-01-15T19:32:39;99543.00;;;14.00
80581;BMP180;1474;51.460;7.150;2024-01-15T19:35:10;99546.00;;;14.00
80581;BMP180;1474;51.460;7.150;2024-01-15T19:37:36;99553.00;;;14.00
80581;BMP180;1474;51.460;7.150;2024-01-15T19:40:03;99553.00;;;14.00
80581;BMP180;1474;51.460;7.150;2024-01-15T19:42:29;99561.00;;;14.00
80581;BMP180;1474;51.460;7.150;2024-01-15T19:44:54;99570.00;;;14.00
80581;BMP180;1474;51.460;7.150;2024-01-15T19:47:22;99573.00;;;14.00
80581;BMP180;1474;51.460;7.150;2024-01-15T19:49:48;99568.00;;;14.00
80581;BMP180;1474;51.460;7.150;2024-01-15T19:52:14;99566.00;;;14.00
80581;BMP180;1474;51.460;7.150;2024-01-15T19:54:40;99573.00;;;14.00
80581;BMP180;1474;51.460;7.150;2024-01-15T19:57:05;99583.00;;;14.00
80581;BMP180;1474;51.460;7.150;2024-01-15T19:59:31;99583.00;;;14.00
80581;BMP180;1474;51.460;7.150;2024-01-15T20:01:58;99594.00;;;14.00
80581;BMP180;1474;51.460;7.150;2024-01-15T20:04:24;99584.00;;;14.00
80581;BMP180;1474;51.460;7.150;2024-01-15T20:06:49;99580.00;;;14.00
80581;BMP180;1474;51.460;7.150;2024-01-15T20:09:16;99589.00;;;14.00
80581;BMP180;1474;51.460;7.150;2024-01-15T20:11:42;99589.00;;;14.00
80581;BMP180;1474;51.460;7.150;2024-01-15T20:14:10;99600.00;;;14.00
80581;BMP180;1474;51.460;7.150;2024-01-15T20:16:35;99590.00;;;14.00
80581;BMP180;1474;51.460;7.150;2024-01-15T20:19:02;99605.00;;;14.00
80581;BMP180;1474;51.460;7.150;2024-01-15T20:21:28;99603.00;;;14.00
80581;BMP180;1474;51.460;7.150;2024-01-15T20:23:54;99604.00;;;14.00
80581;BMP180;1474;51.460;7.150;2024-01-15T20:26:19;99600.00;;;14.00
80581;BMP180;1474;51.460;7.150;2024-01-15T20:28:45;99606.00;;;14.00
80581;BMP180;1474;51.460;7.150;2024-01-15T20:31:15;99611.00;;;14.00